createdAt,value
2022-12-20T00:01:32.905Z,16.45
2022-12-20T00:04:02.372Z,16.55
2022-12-20T00:06:29.217Z,15.88
2022-12-20T00:09:00.301Z,16.00
2022-12-20T00:11:29.122Z,14.98
2022-12-20T00:13:56.445Z,15.50
2022-12-20T00:16:26.105Z,16.23
2022-12-20T00:18:55.274Z,17.23
2022-12-20T00:21:22.077Z,15.90
2022-12-20T00:23:48.668Z,16.65
2022-12-20T00:26:18.741Z,16.55
2022-12-20T00:28:47.690Z,15.88
2022-12-20T00:31:16.597Z,14.80
2022-12-20T00:33:46.872Z,15.98
2022-12-20T00:36:14.346Z,16.77
2022-12-20T00:38:41.479Z,17.58
2022-12-20T00:41:18.649Z,16.95
2022-12-20T00:43:45.199Z,15.68
2022-12-20T00:46:13.429Z,14.40
2022-12-20T00:48:40.599Z,17.58
2022-12-20T00:51:13.549Z,16.50
2022-12-20T00:53:41.267Z,18.15
2022-12-20T00:56:09.018Z,18.50
2022-12-20T00:58:39.054Z,17.55
2022-12-20T01:01:07.738Z,17.20
2022-12-20T01:03:34.393Z,17.38
2022-12-20T01:06:03.072Z,16.35
2022-12-20T01:08:31.387Z,17.17
2022-12-20T01:11:05.024Z,17.25
2022-12-20T01:13:33.333Z,18.20
2022-12-20T01:16:18.129Z,16.65
2022-12-20T01:18:45.334Z,17.35
2022-12-20T01:21:14.028Z,16.85
2022-12-20T01:23:41.060Z,16.58
2022-12-20T01:26:12.137Z,17.42
2022-12-20T01:28:41.429Z,17.77
2022-12-20T01:31:13.863Z,18.58
2022-12-20T01:33:40.607Z,16.20
2022-12-20T01:36:10.719Z,18.45
2022-12-20T01:38:37.370Z,18.02
2022-12-20T01:41:04.132Z,18.40
2022-12-20T01:43:51.116Z,16.70
2022-12-20T01:46:19.305Z,15.88
2022-12-20T01:48:54.132Z,17.75
2022-12-20T01:51:22.809Z,17.55
2022-12-20T01:53:55.096Z,15.75
2022-12-20T01:56:21.712Z,16.90
2022-12-20T01:58:53.106Z,17.92
2022-12-20T02:01:22.945Z,16.30
2022-12-20T02:03:52.473Z,16.13
2022-12-20T02:06:23.350Z,17.52
2022-12-20T02:08:55.102Z,17.58
2022-12-20T02:11:24.693Z,16.90
2022-12-20T02:14:19.960Z,16.85
2022-12-20T02:17:12.851Z,17.10
2022-12-20T02:20:13.574Z,16.35
2022-12-20T02:23:12.394Z,15.55
2022-12-20T02:25:58.029Z,15.57
2022-12-20T02:29:02.134Z,16.33
2022-12-20T02:31:37.721Z,15.88
2022-12-20T02:34:07.474Z,16.67
2022-12-20T02:36:34.169Z,15.70
2022-12-20T02:39:00.819Z,16.58
2022-12-20T02:41:36.112Z,17.95
2022-12-20T02:44:29.955Z,16.65
2022-12-20T02:47:00.486Z,16.88
2022-12-20T02:49:31.270Z,17.00
2022-12-20T02:52:00.562Z,16.83
2022-12-20T02:54:29.193Z,16.23
2022-12-20T02:57:03.461Z,16.67
2022-12-20T02:59:37.419Z,16.75
2022-12-20T03:02:05.579Z,14.95
2022-12-20T03:04:37.635Z,16.13
2022-12-20T03:07:13.632Z,16.20
2022-12-20T03:09:42.452Z,17.10
2022-12-20T03:12:11.713Z,16.15
2022-12-20T03:14:39.207Z,17.35
2022-12-20T03:17:09.347Z,15.63
2022-12-20T03:19:38.027Z,16.73
2022-12-20T03:22:06.022Z,17.23
2022-12-20T03:24:33.231Z,18.95
2022-12-20T03:26:59.873Z,16.83
2022-12-20T03:29:27.055Z,16.90
2022-12-20T03:31:53.765Z,17.58
2022-12-20T03:34:20.416Z,16.08
2022-12-20T03:36:50.086Z,14.90
2022-12-20T03:39:16.867Z,15.18
2022-12-20T03:41:43.495Z,15.82
2022-12-20T03:44:13.564Z,17.38
2022-12-20T03:46:40.246Z,17.52
2022-12-20T03:49:07.275Z,18.52
2022-12-20T03:51:41.478Z,18.88
2022-12-20T03:54:09.016Z,16.83
2022-12-20T03:56:54.465Z,17.08
2022-12-20T03:59:21.704Z,16.88
2022-12-20T04:01:49.479Z,16.58
2022-12-20T04:04:16.498Z,17.10
2022-12-20T04:06:44.095Z,16.95
2022-12-20T04:09:11.800Z,19.95
2022-12-20T04:11:44.658Z,17.83
2022-12-20T04:14:14.810Z,17.00
2022-12-20T04:16:41.599Z,16.75
2022-12-20T04:19:09.476Z,17.75
2022-12-20T04:21:40.687Z,18.25
2022-12-20T04:24:07.806Z,18.25
2022-12-20T04:26:47.132Z,16.58
2022-12-20T04:29:15.486Z,18.08
2022-12-20T04:31:43.398Z,17.48
2022-12-20T04:34:10.262Z,16.27
2022-12-20T04:36:37.756Z,18.95
2022-12-20T04:39:09.480Z,17.75
2022-12-20T04:41:47.274Z,17.63
2022-12-20T04:44:14.057Z,18.67
2022-12-20T04:46:40.815Z,17.83
2022-12-20T04:49:11.998Z,16.23
2022-12-20T04:51:42.824Z,17.15
2022-12-20T04:54:11.062Z,17.88
2022-12-20T04:56:45.976Z,16.42
2022-12-20T05:01:46.379Z,16.73
2022-12-20T05:04:20.789Z,17.38
2022-12-20T05:06:47.375Z,16.55
2022-12-20T05:09:14.478Z,19.08
2022-12-20T05:11:43.118Z,17.00
2022-12-20T05:14:09.911Z,19.08
2022-12-20T05:16:37.433Z,17.73
2022-12-20T05:19:06.189Z,16.58
2022-12-20T05:24:41.447Z,17.92
2022-12-20T05:27:16.997Z,17.98
2022-12-20T05:29:43.967Z,18.45
2022-12-20T05:32:10.625Z,19.60
2022-12-20T05:34:40.557Z,18.58
2022-12-20T05:37:07.463Z,17.50
2022-12-20T05:39:36.430Z,16.73
2022-12-20T05:42:08.645Z,17.55
2022-12-20T05:44:35.950Z,20.55
2022-12-20T05:47:02.673Z,18.95
2022-12-20T05:49:31.451Z,20.20
2022-12-20T05:52:02.005Z,18.75
2022-12-20T05:54:29.244Z,19.63
2022-12-20T05:57:15.985Z,18.50
2022-12-20T05:59:42.697Z,19.85
2022-12-20T06:02:16.181Z,16.92
2022-12-20T06:04:43.929Z,16.75
2022-12-20T06:07:17.021Z,16.92
2022-12-20T06:09:46.834Z,19.02
2022-12-20T06:12:16.784Z,19.15
2022-12-20T06:14:44.727Z,19.17
2022-12-20T06:17:13.390Z,18.20
2022-12-20T06:19:42.790Z,20.45
2022-12-20T06:27:15.754Z,16.00
2022-12-20T06:29:49.323Z,17.30
2022-12-20T06:32:16.515Z,18.15
2022-12-20T06:34:43.530Z,18.45
2022-12-20T06:37:11.105Z,18.02
2022-12-20T06:39:38.148Z,15.98
2022-12-20T06:42:07.864Z,16.45
2022-12-20T06:44:35.944Z,19.50
2022-12-20T06:47:03.114Z,19.55
2022-12-20T06:49:30.357Z,18.17
2022-12-20T06:51:58.111Z,18.40
2022-12-20T06:54:40.931Z,15.68
2022-12-20T06:57:07.703Z,16.60
2022-12-20T06:59:35.236Z,17.77
2022-12-20T07:02:02.688Z,17.60
2022-12-20T07:04:29.474Z,18.33
2022-12-20T07:06:57.201Z,17.38
2022-12-20T07:09:24.213Z,16.50
2022-12-20T07:11:50.782Z,17.45
2022-12-20T07:14:17.454Z,16.23
2022-12-20T07:16:47.031Z,19.20
2022-12-20T07:19:15.421Z,15.32
2022-12-20T07:21:42.575Z,16.60
2022-12-20T07:24:10.435Z,17.35
2022-12-20T07:26:37.074Z,16.42
2022-12-20T07:29:03.952Z,17.33
2022-12-20T07:31:30.910Z,17.65
2022-12-20T07:33:57.524Z,16.77
2022-12-20T07:36:24.121Z,21.40
2022-12-20T07:38:51.400Z,21.13
2022-12-20T07:41:19.090Z,19.30
2022-12-20T07:43:46.052Z,17.73
2022-12-20T07:46:16.959Z,22.45
2022-12-20T07:48:44.640Z,19.83
2022-12-20T07:51:28.019Z,20.52
2022-12-20T07:54:18.924Z,18.10
2022-12-20T07:56:50.372Z,14.43
2022-12-20T07:59:23.997Z,16.50
2022-12-20T08:01:51.302Z,21.00
2022-12-20T08:04:21.344Z,16.13
2022-12-20T08:06:49.745Z,17.45
2022-12-20T08:09:16.908Z,17.10
2022-12-20T08:11:47.142Z,18.35
2022-12-20T08:14:14.433Z,16.80
2022-12-20T08:16:41.653Z,17.00
2022-12-20T08:19:08.293Z,16.85
2022-12-20T08:21:34.928Z,22.80
2022-12-20T08:24:02.048Z,17.80
2022-12-20T08:26:28.699Z,18.08
2022-12-20T08:28:56.058Z,17.20
2022-12-20T08:31:23.228Z,16.85
2022-12-20T08:33:49.857Z,16.13
2022-12-20T08:36:16.484Z,18.90
2022-12-20T08:38:43.057Z,17.70
2022-12-20T08:41:15.558Z,19.38
2022-12-20T08:43:43.173Z,17.67
2022-12-20T08:46:11.201Z,15.48
2022-12-20T08:48:38.145Z,18.15
2022-12-20T08:51:08.457Z,17.83
2022-12-20T08:53:35.883Z,17.23
2022-12-20T08:56:18.620Z,16.80
2022-12-20T08:58:45.918Z,15.30
2022-12-20T09:01:15.417Z,19.02
2022-12-20T09:03:42.614Z,16.95
2022-12-20T09:06:15.699Z,15.30
2022-12-20T09:08:42.447Z,17.48
2022-12-20T09:11:13.640Z,16.02
2022-12-20T09:13:45.371Z,15.90
2022-12-20T09:16:14.151Z,17.00
2022-12-20T09:18:41.577Z,16.33
2022-12-20T09:21:09.363Z,15.38
2022-12-20T09:23:37.159Z,15.80
2022-12-20T09:26:08.817Z,16.98
2022-12-20T09:28:35.412Z,14.77
2022-12-20T09:31:04.081Z,15.73
2022-12-20T09:33:31.766Z,17.85
2022-12-20T09:35:59.422Z,14.60
2022-12-20T09:38:27.571Z,17.40
2022-12-20T09:40:57.824Z,16.95
2022-12-20T09:43:25.035Z,16.70
2022-12-20T09:45:57.382Z,15.25
2022-12-20T09:48:25.466Z,15.13
2022-12-20T09:50:54.629Z,16.33
2022-12-20T09:53:32.950Z,15.30
2022-12-20T09:56:06.436Z,15.10
2022-12-20T09:58:55.154Z,16.08
2022-12-20T10:01:25.702Z,14.32
2022-12-20T10:03:56.024Z,14.90
2022-12-20T10:06:34.708Z,16.13
2022-12-20T10:09:04.822Z,16.30
2022-12-20T10:11:50.137Z,16.67
2022-12-20T10:14:52.025Z,15.45
2022-12-20T10:17:56.375Z,14.70
2022-12-20T10:20:34.986Z,14.02
2022-12-20T10:23:32.824Z,15.23
2022-12-20T10:26:00.943Z,13.88
2022-12-20T10:28:35.432Z,14.00
2022-12-20T10:31:05.141Z,14.75
2022-12-20T10:33:32.462Z,14.80
2022-12-20T10:36:20.737Z,16.30
2022-12-20T10:38:52.436Z,15.50
2022-12-20T10:41:23.281Z,15.20
2022-12-20T10:44:14.263Z,15.45
2022-12-20T10:46:51.826Z,14.10
2022-12-20T10:49:50.735Z,14.50
2022-12-20T10:52:18.320Z,15.48
2022-12-20T10:54:46.734Z,14.25
2022-12-20T10:57:16.272Z,14.73
2022-12-20T10:59:55.190Z,15.18
2022-12-20T11:02:41.555Z,14.98
2022-12-20T11:05:12.299Z,15.25
2022-12-20T11:08:34.783Z,15.65
2022-12-20T11:10:40.696Z,14.38
2022-12-20T11:13:20.916Z,14.77
2022-12-20T11:15:51.014Z,15.20
2022-12-20T11:18:30.309Z,16.13
2022-12-20T11:21:09.646Z,16.75
2022-12-20T11:24:02.679Z,13.98
2022-12-20T11:26:57.189Z,13.77
2022-12-20T11:29:23.833Z,20.17
2022-12-20T11:32:13.180Z,16.73
2022-12-20T11:34:50.514Z,17.50
2022-12-20T11:37:22.870Z,15.23
2022-12-20T11:40:10.457Z,15.13
2022-12-20T11:43:04.753Z,15.23
2022-12-20T11:45:50.727Z,13.68
2022-12-20T11:48:25.920Z,14.70
2022-12-20T11:51:26.044Z,13.68
2022-12-20T11:54:03.034Z,14.37
2022-12-20T11:56:45.295Z,15.77
2022-12-20T11:59:38.558Z,13.50
2022-12-20T12:02:35.734Z,14.88
2022-12-20T12:05:15.516Z,15.23
2022-12-20T12:07:47.087Z,14.65
2022-12-20T12:10:24.564Z,15.73
2022-12-20T12:13:18.719Z,14.55
2022-12-20T12:15:58.654Z,14.13
2022-12-20T12:18:28.995Z,13.38
2022-12-20T12:21:09.840Z,14.52
2022-12-20T12:23:45.674Z,13.27
2022-12-20T12:26:18.934Z,14.57
2022-12-20T12:28:51.036Z,15.05
2022-12-20T12:31:27.059Z,13.65
2022-12-20T12:34:08.893Z,12.40
2022-12-20T12:36:44.237Z,13.07
2022-12-20T12:39:30.434Z,13.45
2022-12-20T12:42:18.395Z,13.82
2022-12-20T12:45:07.822Z,13.45
2022-12-20T12:47:45.780Z,15.10
2022-12-20T12:50:24.052Z,12.80
2022-12-20T12:52:54.634Z,13.55
2022-12-20T12:55:42.742Z,13.18
2022-12-20T12:58:24.514Z,13.88
2022-12-20T13:00:54.070Z,13.60
2022-12-20T13:03:53.960Z,14.15
2022-12-20T13:06:23.496Z,14.00
2022-12-20T13:09:17.438Z,13.77
2022-12-20T13:11:47.524Z,14.10
2022-12-20T13:14:24.629Z,12.93
2022-12-20T13:17:20.733Z,14.45
2022-12-20T13:19:54.970Z,13.57
2022-12-20T13:22:23.223Z,14.38
2022-12-20T13:24:56.217Z,14.77
2022-12-20T13:27:40.708Z,13.80
2022-12-20T13:30:07.279Z,13.95
2022-12-20T13:32:48.813Z,14.05
2022-12-20T13:38:47.495Z,13.02
2022-12-20T13:41:31.124Z,14.00
2022-12-20T13:44:19.166Z,14.15
2022-12-20T13:46:46.820Z,14.77
2022-12-20T13:49:23.879Z,14.52
2022-12-20T13:52:26.637Z,14.82
2022-12-20T13:54:57.257Z,14.95
2022-12-20T13:57:27.218Z,14.35
2022-12-20T14:00:03.555Z,15.05
2022-12-20T14:02:42.011Z,14.88
2022-12-20T14:05:26.539Z,13.60
2022-12-20T14:08:01.193Z,15.38
2022-12-20T14:10:29.636Z,14.80
2022-12-20T14:12:57.264Z,15.48
2022-12-20T14:15:28.259Z,15.55
2022-12-20T14:17:55.337Z,13.43
2022-12-20T14:20:31.667Z,14.00
2022-12-20T14:23:06.825Z,13.82
2022-12-20T14:25:48.009Z,14.30
2022-12-20T14:28:24.798Z,14.68
2022-12-20T14:30:54.062Z,15.45
2022-12-20T14:33:42.089Z,16.17
2022-12-20T14:36:20.063Z,15.18
2022-12-20T14:38:49.402Z,16.40
2022-12-20T14:41:32.382Z,15.48
2022-12-20T14:44:02.964Z,17.55
2022-12-20T14:46:31.061Z,15.80
2022-12-20T14:49:06.523Z,15.40
2022-12-20T14:51:33.242Z,15.50
2022-12-20T14:53:59.863Z,15.73
2022-12-20T14:56:31.642Z,14.15
2022-12-20T14:59:06.520Z,15.35
2022-12-20T15:01:35.941Z,16.23
2022-12-20T15:04:42.343Z,17.33
2022-12-20T15:07:30.583Z,17.17
2022-12-20T15:09:57.184Z,14.77
2022-12-20T15:12:23.727Z,15.20
2022-12-20T15:14:50.374Z,14.93
2022-12-20T15:17:16.979Z,14.63
2022-12-20T15:19:43.694Z,16.55
2022-12-20T15:22:15.609Z,14.45
2022-12-20T15:24:44.956Z,16.35
2022-12-20T15:27:14.152Z,16.25
2022-12-20T15:29:40.794Z,16.20
2022-12-20T15:32:13.410Z,15.02
2022-12-20T15:34:40.173Z,14.30
2022-12-20T15:37:06.913Z,16.98
2022-12-20T15:39:33.987Z,15.40
2022-12-20T15:42:03.568Z,15.93
2022-12-20T15:44:31.827Z,16.27
2022-12-20T15:46:58.617Z,15.65
2022-12-20T15:49:29.208Z,15.90
2022-12-20T15:51:55.997Z,16.03
2022-12-20T15:54:31.590Z,16.83
2022-12-20T15:57:04.248Z,14.93
2022-12-20T16:02:27.453Z,16.17
2022-12-20T16:04:55.378Z,15.10
2022-12-20T16:07:22.499Z,16.30
2022-12-20T16:09:49.263Z,16.15
2022-12-20T16:12:35.981Z,14.40
2022-12-20T16:15:03.335Z,13.80
2022-12-20T16:17:29.951Z,16.48
2022-12-20T16:19:56.613Z,15.85
2022-12-20T16:22:24.250Z,17.65
2022-12-20T16:24:51.810Z,17.33
2022-12-20T16:27:18.691Z,15.57
2022-12-20T16:29:45.593Z,16.45
2022-12-20T16:32:18.609Z,17.70
2022-12-20T16:34:45.857Z,18.63
2022-12-20T16:37:12.637Z,15.57
2022-12-20T16:39:39.495Z,17.08
2022-12-20T16:42:24.359Z,17.00
2022-12-20T16:44:52.645Z,17.15
2022-12-20T16:47:19.357Z,17.67
2022-12-20T16:49:52.273Z,17.23
2022-12-20T16:52:21.896Z,18.63
2022-12-20T16:54:48.945Z,15.70
2022-12-20T16:57:15.690Z,16.38
2022-12-20T16:59:42.294Z,16.88
2022-12-20T17:02:29.920Z,16.58
2022-12-20T17:04:57.066Z,18.52
2022-12-20T17:07:23.847Z,15.68
2022-12-20T17:09:50.565Z,16.35
2022-12-20T17:12:19.177Z,16.13
2022-12-20T17:14:46.434Z,18.83
2022-12-20T17:17:13.550Z,18.08
2022-12-20T17:19:40.320Z,17.90
2022-12-20T17:24:51.945Z,18.00
2022-12-20T17:27:21.304Z,17.30
2022-12-20T17:29:47.950Z,19.05
2022-12-20T17:32:21.209Z,18.20
2022-12-20T17:34:48.415Z,19.23
2022-12-20T17:37:15.051Z,20.23
2022-12-20T17:39:41.639Z,17.10
2022-12-20T17:42:12.360Z,20.67
2022-12-20T17:44:38.938Z,18.15
2022-12-20T17:47:06.451Z,20.08
2022-12-20T17:49:33.058Z,18.17
2022-12-20T17:51:59.677Z,18.40
2022-12-20T17:54:32.131Z,17.48
2022-12-20T17:57:03.614Z,16.45
2022-12-20T17:59:30.618Z,22.17
2022-12-20T18:01:57.527Z,18.35
2022-12-20T18:04:24.360Z,18.50
2022-12-20T18:06:52.249Z,17.73
2022-12-20T18:09:20.829Z,16.83
2022-12-20T18:11:48.184Z,16.95
2022-12-20T18:14:15.335Z,17.52
2022-12-20T18:16:42.176Z,17.27
2022-12-20T18:19:15.267Z,18.83
2022-12-20T18:21:41.870Z,18.55
2022-12-20T18:24:11.401Z,16.52
2022-12-20T18:26:37.961Z,16.35
2022-12-20T18:29:04.527Z,18.80
2022-12-20T18:31:33.937Z,21.35
2022-12-20T18:34:01.352Z,19.83
2022-12-20T18:36:34.619Z,18.58
2022-12-20T18:39:04.417Z,19.50
2022-12-20T18:41:31.938Z,16.17
2022-12-20T18:44:01.457Z,21.13
2022-12-20T18:46:28.803Z,18.60
2022-12-20T18:48:59.052Z,17.42
2022-12-20T18:51:31.565Z,16.75
2022-12-20T18:53:59.622Z,19.33
2022-12-20T18:56:32.890Z,18.50
2022-12-20T18:59:08.050Z,20.45
2022-12-20T19:01:37.599Z,17.65
2022-12-20T19:04:06.480Z,17.70
2022-12-20T19:06:33.475Z,17.38
2022-12-20T19:09:01.353Z,19.90
2022-12-20T19:11:28.104Z,21.52
2022-12-20T19:13:55.337Z,18.42
2022-12-20T19:16:25.127Z,16.08
2022-12-20T19:18:51.859Z,17.73
2022-12-20T19:21:21.896Z,17.50
2022-12-20T19:23:51.534Z,16.60
2022-12-20T19:26:19.929Z,17.98
2022-12-20T19:28:47.052Z,16.77
2022-12-20T19:31:21.239Z,16.65
2022-12-20T19:33:48.598Z,17.10
2022-12-20T19:36:21.487Z,17.02
2022-12-20T19:38:51.091Z,16.33
2022-12-20T19:41:19.647Z,16.35
2022-12-20T19:43:49.801Z,17.00
2022-12-20T19:46:18.907Z,14.95
2022-12-20T19:48:45.548Z,17.75
2022-12-20T19:51:15.450Z,15.75
2022-12-20T19:53:44.394Z,15.35
2022-12-20T19:56:16.947Z,16.30
2022-12-20T19:58:44.491Z,16.77
2022-12-20T20:01:12.014Z,16.10
2022-12-20T20:03:39.279Z,15.85
2022-12-20T20:06:07.175Z,16.10
2022-12-20T20:08:34.711Z,15.77
2022-12-20T20:11:08.812Z,15.05
2022-12-20T20:13:36.279Z,15.00
2022-12-20T20:16:04.072Z,14.30
2022-12-20T20:18:36.865Z,15.75
2022-12-20T20:21:09.662Z,15.18
2022-12-20T20:23:37.547Z,15.35
2022-12-20T20:26:16.188Z,14.98
2022-12-20T20:28:44.971Z,14.52
2022-12-20T20:31:13.875Z,14.68
2022-12-20T20:33:41.028Z,15.82
2022-12-20T20:36:08.130Z,15.43
2022-12-20T20:38:36.375Z,15.27
2022-12-20T20:41:03.536Z,14.50
2022-12-20T20:43:32.391Z,16.85
2022-12-20T20:45:59.056Z,16.75
2022-12-20T20:48:25.650Z,15.45
2022-12-20T20:50:52.199Z,16.33
2022-12-20T20:53:19.195Z,16.60
2022-12-20T20:55:46.705Z,14.88
2022-12-20T20:58:13.728Z,14.35
2022-12-20T21:00:40.344Z,15.63
2022-12-20T21:03:07.358Z,16.35
2022-12-20T21:08:21.743Z,16.80
2022-12-20T21:10:51.501Z,15.80
2022-12-20T21:13:18.167Z,15.48
2022-12-20T21:15:46.333Z,15.48
2022-12-20T21:18:13.606Z,15.80
2022-12-20T21:20:40.410Z,16.48
2022-12-20T21:23:07.098Z,14.77
2022-12-20T21:25:33.955Z,14.02
2022-12-20T21:28:00.558Z,13.90
2022-12-20T21:30:27.863Z,13.25
2022-12-20T21:32:56.537Z,13.77
2022-12-20T21:35:27.060Z,13.73
2022-12-20T21:37:53.713Z,16.53
2022-12-20T21:40:20.300Z,15.55
2022-12-20T21:42:46.839Z,15.07
2022-12-20T21:45:13.518Z,15.10
2022-12-20T21:47:40.314Z,15.32
2022-12-20T21:50:07.751Z,16.40
2022-12-20T21:52:35.186Z,14.25
2022-12-20T21:55:02.004Z,16.02
2022-12-20T21:57:30.771Z,16.83
2022-12-20T21:59:57.315Z,14.63
2022-12-20T22:02:23.957Z,15.43
2022-12-20T22:04:50.726Z,14.15
2022-12-20T22:07:17.337Z,16.02
2022-12-20T22:09:47.013Z,16.42
2022-12-20T22:12:13.594Z,15.15
2022-12-20T22:14:40.160Z,15.48
2022-12-20T22:17:06.721Z,14.93
2022-12-20T22:19:33.505Z,14.15
2022-12-20T22:22:00.094Z,15.27
2022-12-20T22:24:26.640Z,14.57
2022-12-20T22:26:53.269Z,14.88
2022-12-20T22:29:20.216Z,14.35
2022-12-20T22:31:46.913Z,13.93
2022-12-20T22:34:13.628Z,14.50
2022-12-20T22:36:40.165Z,14.25
2022-12-20T22:39:06.755Z,15.73
2022-12-20T22:41:36.611Z,15.10
2022-12-20T22:44:03.750Z,15.05
2022-12-20T22:46:30.561Z,14.20
2022-12-20T22:48:58.502Z,15.63
2022-12-20T22:51:28.048Z,15.93
2022-12-20T22:53:57.388Z,14.10
2022-12-20T22:56:24.158Z,14.60
2022-12-20T22:58:50.831Z,15.32
2022-12-20T23:01:19.811Z,15.32
2022-12-20T23:03:47.093Z,15.32
2022-12-20T23:06:17.136Z,15.68
2022-12-20T23:08:43.837Z,14.65
2022-12-20T23:11:43.871Z,15.85
2022-12-20T23:14:47.144Z,14.68
2022-12-20T23:17:13.777Z,14.15
2022-12-20T23:19:58.969Z,14.07
2022-12-20T23:22:37.609Z,15.27
2022-12-20T23:25:05.706Z,14.85
2022-12-20T23:27:32.882Z,15.32
2022-12-20T23:29:59.525Z,14.02
2022-12-20T23:32:26.066Z,14.05
2022-12-20T23:34:52.816Z,15.68
2022-12-20T23:37:19.593Z,16.17
2022-12-20T23:39:46.198Z,15.85
2022-12-20T23:42:12.826Z,16.13
2022-12-20T23:44:39.409Z,15.73
2022-12-20T23:47:06.064Z,16.27
2022-12-20T23:49:35.370Z,15.48
2022-12-20T23:52:01.904Z,14.32
2022-12-20T23:54:28.555Z,14.88
2022-12-20T23:56:55.135Z,15.18
2022-12-20T23:59:22.153Z,15.80
